Time;durP1;ratioP1;P1;durP2;ratioP2;P2;SDS_P1;SDS_P2;PMS_P1;PMS_P2;Temp;Humidity;BMP_temperature;BMP_pressure;BME280_temperature;BME280_humidity;BME280_pressure;Samples;Min_cycle;Max_cycle;Signal;HPM_P1;HPM_P2
2023/04/30 00:02:08;;;;;;;4.07;2.97;;;;;;;13.01;80.23;97846.34;5053847;28;20168;-62
2023/04/30 00:04:33;;;;;;;3.85;3.25;;;;;;;13.18;80.50;97874.28;5071165;28;20225;-62
2023/04/30 00:06:59;;;;;;;3.25;2.95;;;;;;;13.38;80.05;97905.34;5071369;28;20324;-62
2023/04/30 00:09:25;;;;;;;8.43;3.47;;;;;;;13.08;79.72;97844.84;5071300;28;20189;-62
2023/04/30 00:11:50;;;;;;;3.80;3.10;;;;;;;13.40;80.60;97911.22;5071323;28;20228;-62
2023/04/30 00:14:16;;;;;;;3.20;2.90;;;;;;;13.41;81.23;97930.25;5071435;28;20720;-62
2023/04/30 00:16:41;;;;;;;5.22;3.03;;;;;;;13.23;81.07;97888.50;5051038;28;20190;-62
2023/04/30 00:19:07;;;;;;;3.05;2.75;;;;;;;13.57;80.87;97927.91;5050932;28;20321;-62
2023/04/30 00:21:33;;;;;;;3.58;3.25;;;;;;;13.35;80.58;97907.41;5050777;28;20185;-62
2023/04/30 00:23:59;;;;;;;3.15;2.75;;;;;;;13.58;81.04;97929.56;5050986;28;20201;-62
2023/04/30 00:26:25;;;;;;;3.63;3.33;;;;;;;13.44;80.50;97902.22;5050967;28;20221;-62
2023/04/30 00:28:51;;;;;;;3.70;3.28;;;;;;;13.02;80.88;97837.59;5050965;28;20193;-62
2023/04/30 00:31:16;;;;;;;3.80;3.17;;;;;;;13.07;80.72;97832.81;5050802;28;20572;-62
2023/04/30 00:33:41;;;;;;;3.42;3.13;;;;;;;13.32;81.19;97874.69;5050871;28;20183;-61
2023/04/30 00:36:07;;;;;;;3.33;3.00;;;;;;;13.70;81.19;97925.91;5035959;28;20277;-61
2023/04/30 00:38:32;;;;;;;3.03;2.75;;;;;;;13.41;82.79;97899.06;5030779;28;20221;-61
2023/04/30 00:40:58;;;;;;;3.30;3.10;;;;;;;13.38;82.72;97881.97;5030838;28;20601;-61
2023/04/30 00:43:23;;;;;;;4.10;3.70;;;;;;;13.56;82.60;97921.09;5030746;28;20201;-61
2023/04/30 00:45:49;;;;;;;2.92;2.72;;;;;;;12.97;83.65;97844.97;5030748;28;20689;-61
2023/04/30 00:48:15;;;;;;;4.00;2.97;;;;;;;13.10;84.45;97887.09;5045280;28;20194;-61
2023/04/30 00:50:42;;;;;;;3.28;3.08;;;;;;;12.81;84.53;97849.81;5050565;28;20265;-61
2023/04/30 00:53:08;;;;;;;3.35;3.05;;;;;;;12.88;84.68;97858.69;5052019;28;20225;-61
2023/04/30 00:55:33;;;;;;;3.63;3.33;;;;;;;13.00;85.30;97870.69;5052870;28;20666;-62
2023/04/30 00:57:59;;;;;;;3.92;3.53;;;;;;;12.82;85.09;97830.66;5052555;28;20193;-61
2023/04/30 01:00:26;;;;;;;5.10;3.65;;;;;;;13.16;85.07;97882.19;5052762;28;20235;-61
2023/04/30 01:02:52;;;;;;;4.38;3.90;;;;;;;13.42;85.15;97924.09;5051848;28;20173;-62
2023/04/30 01:05:17;;;;;;;4.28;3.20;;;;;;;13.37;86.31;97926.25;5052542;28;20235;-61
2023/04/30 01:07:45;;;;;;;3.38;3.08;;;;;;;13.27;86.95;97915.84;5052918;28;20723;-62
2023/04/30 01:10:13;;;;;;;3.33;2.90;;;;;;;13.30;87.08;97917.38;5052548;28;20169;-62
2023/04/30 01:12:59;;;;;;;4.45;3.10;;;;;;;13.41;85.99;97928.44;5052582;28;20170;-62
2023/04/30 01:15:51;;;;;;;5.15;3.08;;;;;;;13.46;85.26;97928.03;5052468;28;20174;-62
2023/04/30 01:18:30;;;;;;;3.88;3.22;;;;;;;13.06;86.82;97875.34;5031975;28;20214;-63
2023/04/30 01:21:04;;;;;;;3.72;3.42;;;;;;;13.26;86.69;97921.19;5030103;28;20340;-62
2023/04/30 01:23:41;;;;;;;5.53;2.97;;;;;;;13.44;86.22;97927.38;5030056;28;20201;-62
2023/04/30 01:26:20;;;;;;;3.35;3.05;;;;;;;12.91;86.99;97835.06;5030065;28;20277;-62
2023/04/30 01:28:49;;;;;;;8.00;3.45;;;;;;;13.49;87.50;97909.59;5029997;28;20183;-63
2023/04/30 01:31:17;;;;;;;3.70;3.13;;;;;;;13.47;87.74;97901.13;5029916;28;20274;-62
2023/04/30 01:33:43;;;;;;;6.40;3.15;;;;;;;13.11;87.70;97844.56;5029871;28;20183;-61
2023/04/30 01:36:25;;;;;;;3.92;3.53;;;;;;;13.52;88.71;97919.69;5029824;28;20178;-62
2023/04/30 01:39:15;;;;;;;3.38;2.80;;;;;;;13.26;89.28;97869.22;5029819;28;20210;-62
2023/04/30 01:41:43;;;;;;;3.47;3.28;;;;;;;13.62;88.48;97916.19;5029829;28;20186;-62
2023/04/30 01:44:26;;;;;;;2.75;2.53;;;;;;;13.72;87.43;97913.59;5029692;28;20190;-62
2023/04/30 01:47:05;;;;;;;5.28;3.20;;;;;;;13.43;89.08;97891.94;5029724;28;20175;-62
2023/04/30 01:49:56;;;;;;;3.33;3.03;;;;;;;13.36;90.88;97901.25;5040544;28;20746;-62
2023/04/30 01:52:38;;;;;;;3.00;2.80;;;;;;;12.80;90.81;97806.63;5051981;28;20193;-62
2023/04/30 01:55:10;;;;;;;3.80;3.50;;;;;;;13.43;90.64;97884.97;5051547;28;20634;-62
2023/04/30 01:58:00;;;;;;;4.85;3.75;;;;;;;13.44;90.46;97877.97;5051716;28;20185;-62
2023/04/30 02:00:29;;;;;;;3.65;3.35;;;;;;;13.07;90.54;97825.03;5051958;28;20186;-62
2023/04/30 02:02:55;;;;;;;3.13;2.92;;;;;;;12.99;89.74;97791.94;5051837;28;20173;-63
2023/04/30 02:05:20;;;;;;;3.58;3.28;;;;;;;13.25;88.81;97823.41;5051532;28;20182;-63
2023/04/30 02:07:48;;;;;;;3.95;3.70;;;;;;;13.54;89.09;97881.41;5051832;28;20181;-62
2023/04/30 02:10:15;;;;;;;4.75;3.25;;;;;;;13.60;87.43;97870.47;5051750;28;20178;-62
2023/04/30 02:12:40;;;;;;;3.80;3.40;;;;;;;13.37;86.65;97837.91;5051754;28;20235;-62
2023/04/30 02:15:07;;;;;;;4.28;3.08;;;;;;;13.13;86.95;97808.91;5053648;28;20170;-63
2023/04/30 02:17:32;;;;;;;4.15;3.22;;;;;;;13.07;87.08;97796.47;5055850;28;20174;-62
2023/04/30 02:19:58;;;;;;;3.50;3.03;;;;;;;13.22;85.96;97829.69;5055693;28;20633;-62
2023/04/30 02:22:24;;;;;;;3.92;3.20;;;;;;;12.92;86.55;97784.78;5055727;28;20537;-62
2023/04/30 02:24:50;;;;;;;3.63;3.42;;;;;;;13.31;87.75;97864.44;5055656;28;20181;-62
2023/04/30 02:27:16;;;;;;;4.00;3.60;;;;;;;13.26;87.42;97861.41;5055583;28;20641;-63
2023/04/30 02:29:42;;;;;;;4.47;3.58;;;;;;;12.98;88.02;97826.66;5055642;28;20239;-62
2023/04/30 02:32:08;;;;;;;3.65;3.00;;;;;;;12.80;87.60;97793.66;5055583;28;20174;-62
2023/04/30 02:34:33;;;;;;;3.63;3.33;;;;;;;13.20;88.75;97867.16;5055239;28;20174;-62
2023/04/30 02:36:58;;;;;;;3.78;3.35;;;;;;;13.21;89.07;97864.44;5055808;28;20185;-62
2023/04/30 02:39:24;;;;;;;3.63;3.33;;;;;;;12.92;88.67;97810.75;5055355;28;20209;-62
2023/04/30 02:41:49;;;;;;;3.85;3.45;;;;;;;13.04;88.39;97840.88;5055389;28;20256;-62
2023/04/30 02:44:14;;;;;;;3.78;3.42;;;;;;;13.24;88.50;97863.34;5055342;28;20186;-62
2023/04/30 02:46:40;;;;;;;3.90;3.17;;;;;;;13.20;87.85;97854.16;5055285;28;20220;-62
2023/04/30 02:49:06;;;;;;;5.13;3.42;;;;;;;13.21;89.46;97889.56;5055255;28;20181;-62
2023/04/30 02:51:31;;;;;;;4.55;3.80;;;;;;;13.23;90.13;97887.66;5055224;28;20257;-62
2023/04/30 02:53:57;;;;;;;3.42;3.22;;;;;;;12.71;89.70;97797.84;5055232;28;20299;-62
2023/04/30 02:56:22;;;;;;;5.72;3.90;;;;;;;13.16;90.19;97886.56;5055167;28;20566;-62
2023/04/30 02:58:48;;;;;;;4.40;4.00;;;;;;;12.66;91.06;97809.59;5055009;28;20228;-62
2023/04/30 03:01:13;;;;;;;3.95;3.28;;;;;;;12.59;90.88;97795.50;5052455;28;20178;-62
2023/04/30 03:03:39;;;;;;;4.22;3.70;;;;;;;12.58;91.52;97799.03;5052593;28;20771;-62
2023/04/30 03:06:04;;;;;;;3.53;3.20;;;;;;;12.81;90.32;97855.00;5052448;28;20189;-62
2023/04/30 03:08:30;;;;;;;3.67;3.22;;;;;;;12.72;91.20;97835.03;5052745;28;20200;-62
2023/04/30 03:10:55;;;;;;;4.32;3.60;;;;;;;12.84;92.29;97865.13;5052484;28;20181;-62
2023/04/30 03:13:21;;;;;;;3.97;3.55;;;;;;;12.74;93.01;97859.06;5052404;28;20296;-62
2023/04/30 03:15:46;;;;;;;3.35;3.05;;;;;;;12.31;94.28;97802.22;5052308;28;20574;-62
2023/04/30 03:18:11;;;;;;;5.28;3.70;;;;;;;12.66;93.66;97843.34;5052478;28;20758;-62
2023/04/30 03:20:37;;;;;;;5.38;3.45;;;;;;;12.62;94.84;97839.38;5052534;28;20196;-62
2023/04/30 03:23:02;;;;;;;7.43;3.60;;;;;;;12.50;92.33;97840.41;5052234;28;20227;-62
2023/04/30 03:25:28;;;;;;;4.22;3.17;;;;;;;12.31;92.36;97807.41;5052163;28;20194;-62
2023/04/30 03:27:53;;;;;;;4.53;3.17;;;;;;;12.83;92.70;97892.06;5051393;28;20182;-62
2023/04/30 03:30:18;;;;;;;3.38;3.15;;;;;;;12.93;91.91;97896.31;5052094;28;20181;-63
2023/04/30 03:32:44;;;;;;;5.47;3.22;;;;;;;12.76;91.54;97873.56;5066174;28;20192;-63
2023/04/30 03:35:10;;;;;;;5.72;4.45;;;;;;;12.97;89.80;97902.09;5071973;28;20196;-62
2023/04/30 03:37:35;;;;;;;4.30;3.92;;;;;;;13.10;88.60;97913.06;5071923;28;20181;-63
2023/04/30 03:40:00;;;;;;;4.28;3.67;;;;;;;13.04;89.51;97896.25;5071855;28;20213;-63
2023/04/30 03:42:26;;;;;;;4.10;3.58;;;;;;;13.12;89.30;97901.59;5071815;28;20185;-62
2023/04/30 03:44:51;;;;;;;3.58;3.17;;;;;;;12.85;89.72;97887.53;5071562;28;20339;-62
2023/04/30 03:47:17;;;;;;;3.63;3.40;;;;;;;12.65;89.89;97865.88;5071716;28;20188;-63
2023/04/30 03:49:42;;;;;;;4.20;3.38;;;;;;;12.48;91.22;97850.91;5071980;28;20193;-62
2023/04/30 03:52:07;;;;;;;5.07;3.70;;;;;;;12.51;92.48;97868.84;5071644;28;20192;-62
2023/04/30 03:54:33;;;;;;;4.28;3.50;;;;;;;12.69;93.90;97934.75;5071647;28;20242;-63
2023/04/30 03:57:02;;;;;;;3.30;3.05;;;;;;;12.51;94.55;97899.97;5071723;28;20943;-63
2023/04/30 03:59:28;;;;;;;3.50;3.20;;;;;;;12.48;94.12;97886.44;5071320;28;20216;-62
2023/04/30 04:01:54;;;;;;;5.03;3.33;;;;;;;12.48;96.14;97889.84;5071527;28;20184;-63
2023/04/30 04:04:19;;;;;;;3.42;3.15;;;;;;;12.63;95.29;97921.47;5071360;28;20193;-62
2023/04/30 04:06:45;;;;;;;4.07;3.65;;;;;;;12.71;95.37;97921.66;5071466;28;20270;-63
2023/04/30 04:09:10;;;;;;;4.63;3.40;;;;;;;12.34;95.13;97866.84;5071393;28;21011;-63
2023/04/30 04:11:36;;;;;;;6.75;3.95;;;;;;;12.92;94.66;97945.78;5071249;28;20189;-62
2023/04/30 04:14:01;;;;;;;3.97;3.60;;;;;;;12.66;95.26;97914.22;5071303;28;20196;-63
2023/04/30 04:16:27;;;;;;;6.22;4.18;;;;;;;12.62;97.39;97927.59;5051005;28;20293;-63
2023/04/30 04:18:52;;;;;;;4.25;3.70;;;;;;;12.45;96.58;97878.91;5051124;28;20216;-62
2023/04/30 04:21:18;;;;;;;4.93;3.80;;;;;;;12.44;97.42;97882.44;5051062;28;20185;-62
2023/04/30 04:23:43;;;;;;;5.38;3.80;;;;;;;12.48;97.75;97881.25;5051103;28;20656;-63
2023/04/30 04:26:09;;;;;;;4.50;3.30;;;;;;;12.74;98.47;97918.78;5051022;28;20271;-62
2023/04/30 04:28:35;;;;;;;6.13;4.00;;;;;;;12.54;97.90;97873.75;5051018;28;20181;-62
2023/04/30 04:31:02;;;;;;;4.47;3.85;;;;;;;12.55;98.93;97877.97;5050927;28;20704;-63
2023/04/30 04:33:27;;;;;;;5.97;4.60;;;;;;;12.70;100.00;97904.41;5050922;28;20584;-62
2023/04/30 04:35:53;;;;;;;4.97;4.00;;;;;;;13.15;99.59;97958.47;5050904;28;20254;-63
2023/04/30 04:38:18;;;;;;;4.28;3.83;;;;;;;13.35;98.38;97975.75;5049670;28;20210;-63
2023/04/30 04:40:52;;;;;;;7.57;4.03;;;;;;;13.11;96.60;97918.13;5050762;28;20257;-62
2023/04/30 04:43:17;;;;;;;5.03;4.10;;;;;;;12.86;99.03;97878.78;5050643;28;20192;-63
2023/04/30 04:45:42;;;;;;;5.75;4.10;;;;;;;13.35;98.83;97959.38;5050676;28;20182;-62
2023/04/30 04:48:08;;;;;;;6.05;4.40;;;;;;;13.36;98.33;97961.81;5052202;28;20235;-63
2023/04/30 04:50:33;;;;;;;6.88;4.90;;;;;;;13.20;97.71;97906.13;5052994;28;20548;-63
2023/04/30 04:52:58;;;;;;;6.40;4.40;;;;;;;13.38;96.06;97923.53;5053023;28;20178;-63
2023/04/30 04:55:24;;;;;;;5.30;4.45;;;;;;;13.52;95.73;97940.50;5052841;28;20180;-63
2023/04/30 04:57:49;;;;;;;6.78;4.63;;;;;;;13.55;94.00;97927.25;5030204;28;20276;-63
2023/04/30 05:00:16;;;;;;;5.97;4.25;;;;;;;13.96;92.80;97976.41;5030367;28;20210;-62
2023/04/30 05:02:42;;;;;;;4.28;3.90;;;;;;;13.58;91.02;97903.56;5030400;28;20197;-62
2023/04/30 05:05:07;;;;;;;7.03;4.18;;;;;;;13.78;89.48;97931.22;5030334;28;20265;-63
2023/04/30 05:07:34;;;;;;;4.60;4.13;;;;;;;13.86;87.79;97940.00;5030361;28;20673;-63
2023/04/30 05:09:59;;;;;;;5.55;3.95;;;;;;;14.25;85.26;97987.66;5030310;28;20213;-63
2023/04/30 05:12:25;;;;;;;4.97;3.80;;;;;;;14.29;83.00;97963.03;5030241;28;20191;-62
2023/04/30 05:14:50;;;;;;;5.38;3.58;;;;;;;14.00;81.72;97910.16;5030171;28;20258;-62
2023/04/30 05:17:15;;;;;;;4.65;4.07;;;;;;;14.44;80.21;97978.06;5030060;28;20190;-62
2023/04/30 05:19:41;;;;;;;7.15;4.82;;;;;;;14.08;80.23;97918.06;5030041;28;20202;-62
2023/04/30 05:22:06;;;;;;;7.68;4.72;;;;;;;14.13;79.58;97908.09;5030017;28;20225;-62
2023/04/30 05:24:32;;;;;;;8.00;4.97;;;;;;;14.73;78.33;97991.00;5030006;28;20187;-62
2023/04/30 05:26:58;;;;;;;6.95;4.00;;;;;;;14.81;76.90;97978.13;5029960;28;20196;-62
2023/04/30 05:29:23;;;;;;;5.10;4.60;;;;;;;14.53;75.33;97911.31;5046158;28;20178;-62
2023/04/30 05:31:49;;;;;;;5.25;4.82;;;;;;;14.67;74.41;97903.03;5052163;28;20174;-62
2023/04/30 05:34:14;;;;;;;5.28;4.78;;;;;;;15.36;73.66;97990.28;5052139;28;20178;-62
2023/04/30 05:36:40;;;;;;;4.78;4.28;;;;;;;15.30;72.58;97947.34;5052375;28;20173;-62
2023/04/30 05:39:05;;;;;;;5.07;4.63;;;;;;;15.70;71.97;97991.31;5051979;28;20546;-62
2023/04/30 05:41:31;;;;;;;5.07;4.40;;;;;;;15.68;70.09;97973.19;5052110;28;20185;-62
2023/04/30 05:43:56;;;;;;;7.10;4.80;;;;;;;15.51;70.38;97923.66;5069437;28;20192;-62
2023/04/30 05:46:21;;;;;;;4.55;3.90;;;;;;;16.06;70.13;97993.81;5069643;28;20342;-62
2023/04/30 05:48:47;;;;;;;8.27;4.85;;;;;;;15.63;69.98;97922.47;5069489;28;20181;-62
2023/04/30 05:51:12;;;;;;;7.30;5.57;;;;;;;16.02;71.17;97976.81;5069658;28;20559;-62
2023/04/30 05:53:38;;;;;;;7.38;5.50;;;;;;;15.97;71.63;97954.75;5069558;28;20343;-62
2023/04/30 05:56:03;;;;;;;6.95;5.10;;;;;;;15.89;72.10;97944.22;5069418;28;20192;-62
2023/04/30 05:58:29;;;;;;;9.13;6.05;;;;;;;15.98;72.25;97961.59;5069400;28;20223;-62
2023/04/30 06:00:55;;;;;;;6.57;5.65;;;;;;;15.99;71.95;97956.25;5069376;28;20207;-62
2023/04/30 06:03:21;;;;;;;9.27;5.93;;;;;;;16.30;72.25;98001.88;5068988;28;20197;-62
2023/04/30 06:05:46;;;;;;;6.03;5.32;;;;;;;16.24;72.84;98006.84;5069306;28;20231;-62
2023/04/30 06:08:12;;;;;;;9.63;5.88;;;;;;;15.95;73.17;97969.72;5069192;28;20180;-62
2023/04/30 06:10:38;;;;;;;7.15;6.03;;;;;;;16.14;73.56;98001.72;5069197;28;20200;-62
2023/04/30 06:13:05;;;;;;;5.97;5.38;;;;;;;15.85;73.49;97953.34;5069021;28;20646;-62
2023/04/30 06:15:30;;;;;;;9.02;6.53;;;;;;;16.25;73.23;98019.75;5069236;28;20191;-62
2023/04/30 06:17:56;;;;;;;8.75;5.90;;;;;;;15.76;73.52;97943.78;5069422;28;20184;-62
2023/04/30 06:20:21;;;;;;;7.53;6.25;;;;;;;16.08;73.70;97998.88;5067721;28;20714;-62
2023/04/30 06:22:46;;;;;;;6.75;5.95;;;;;;;16.19;73.89;98011.69;5051262;28;20177;-62
2023/04/30 06:25:12;;;;;;;11.18;6.30;;;;;;;16.17;73.85;98016.25;5051470;28;20174;-62
2023/04/30 06:27:37;;;;;;;7.78;6.30;;;;;;;16.27;73.86;98014.41;5051644;28;20183;-61
2023/04/30 06:30:03;;;;;;;10.55;6.15;;;;;;;16.02;72.99;97971.59;5051901;28;20177;-62
2023/04/30 06:32:29;;;;;;;8.07;5.55;;;;;;;16.16;73.05;97984.09;5051521;28;20666;-61
2023/04/30 06:34:54;;;;;;;12.70;5.90;;;;;;;15.94;73.34;97949.81;5051085;28;20679;-61
2023/04/30 06:37:20;;;;;;;10.52;6.00;;;;;;;16.41;73.20;98019.13;5051464;28;20182;-61
2023/04/30 06:39:45;;;;;;;7.88;6.40;;;;;;;15.92;74.19;97949.97;5051392;28;20288;-61
2023/04/30 06:42:11;;;;;;;8.68;6.93;;;;;;;15.92;74.76;97933.50;5050951;28;20174;-61
2023/04/30 06:44:36;;;;;;;7.03;6.15;;;;;;;16.46;74.79;98024.72;5051439;28;20180;-61
2023/04/30 06:47:01;;;;;;;8.43;6.43;;;;;;;16.43;75.29;98017.16;5051439;28;20255;-61
2023/04/30 06:49:27;;;;;;;9.10;6.78;;;;;;;16.52;75.29;98018.88;5051313;28;20174;-61
2023/04/30 06:51:54;;;;;;;8.05;6.57;;;;;;;16.28;75.60;97974.25;5051368;28;20181;-61
2023/04/30 06:54:21;;;;;;;7.50;6.55;;;;;;;16.67;74.48;98014.75;5048609;28;20190;-61
2023/04/30 06:56:47;;;;;;;7.20;6.20;;;;;;;16.26;74.71;97931.84;5048612;28;20185;-63
2023/04/30 06:59:12;;;;;;;8.15;6.63;;;;;;;16.77;73.82;97999.78;5048314;28;20232;-62
2023/04/30 07:01:38;;;;;;;6.88;5.68;;;;;;;16.74;72.85;97960.91;5049755;28;20174;-63
2023/04/30 07:04:03;;;;;;;8.15;6.15;;;;;;;16.81;72.20;97969.78;5052607;28;20303;-63
2023/04/30 07:06:29;;;;;;;8.80;6.00;;;;;;;16.90;71.68;97966.25;5052554;28;20243;-63
2023/04/30 07:08:54;;;;;;;6.90;6.20;;;;;;;17.06;70.75;97972.38;5052411;28;20647;-63
2023/04/30 07:11:20;;;;;;;5.70;5.10;;;;;;;17.15;70.34;97968.00;5052416;28;20582;-63
2023/04/30 07:13:45;;;;;;;8.77;6.00;;;;;;;16.88;70.86;97923.75;5052389;28;20544;-63
2023/04/30 07:16:11;;;;;;;7.80;5.32;;;;;;;16.95;69.52;97915.13;5052371;28;20181;-63
2023/04/30 07:18:36;;;;;;;6.38;5.78;;;;;;;17.61;68.88;98018.06;5052188;28;20304;-63
2023/04/30 07:21:02;;;;;;;6.20;5.68;;;;;;;17.47;68.16;97957.69;5052156;28;20260;-63
2023/04/30 07:23:28;;;;;;;6.00;5.50;;;;;;;17.33;68.13;97916.44;5052104;28;20181;-63
2023/04/30 07:25:53;;;;;;;6.32;5.70;;;;;;;17.79;68.63;97994.44;5051866;28;20188;-62
2023/04/30 07:28:19;;;;;;;6.45;5.85;;;;;;;17.78;68.42;98001.44;5052080;28;20660;-62
2023/04/30 07:30:44;;;;;;;8.32;6.35;;;;;;;17.50;69.15;97973.09;5052247;28;20177;-62
2023/04/30 07:33:11;;;;;;;8.73;6.20;;;;;;;17.43;70.01;97961.63;5052905;28;20558;-62
2023/04/30 07:35:37;;;;;;;8.65;6.10;;;;;;;17.60;70.69;97971.97;5054356;28;20184;-62
2023/04/30 07:38:04;;;;;;;8.00;5.85;;;;;;;17.69;70.19;97973.63;5054392;28;20180;-62
2023/04/30 07:40:29;;;;;;;7.18;5.57;;;;;;;17.48;70.44;97902.59;5054354;28;20640;-63
2023/04/30 07:42:55;;;;;;;9.77;6.07;;;;;;;18.05;70.70;97987.28;5053747;28;20176;-63
2023/04/30 07:45:20;;;;;;;6.90;5.57;;;;;;;17.73;69.10;97917.38;5053651;28;20267;-63
2023/04/30 07:47:46;;;;;;;9.20;5.40;;;;;;;18.40;67.49;98006.16;5054244;28;20201;-63
2023/04/30 07:50:13;;;;;;;6.72;5.30;;;;;;;18.51;67.10;98000.59;5054163;28;20177;-62
2023/04/30 07:52:39;;;;;;;6.22;5.00;;;;;;;18.58;66.22;97993.72;5054142;28;20169;-63
2023/04/30 07:55:05;;;;;;;6.13;5.28;;;;;;;18.22;66.11;97926.91;5054065;28;20177;-63
2023/04/30 07:57:30;;;;;;;4.90;4.47;;;;;;;18.39;64.83;97930.34;5053779;28;20575;-63
2023/04/30 07:59:56;;;;;;;5.25;4.75;;;;;;;18.38;64.06;97920.88;5054045;28;20197;-63
2023/04/30 08:02:22;;;;;;;6.00;4.35;;;;;;;18.52;62.87;97934.13;5053930;28;20173;-63
2023/04/30 08:04:47;;;;;;;5.97;4.78;;;;;;;18.76;63.22;97980.44;5053642;28;20204;-63
2023/04/30 08:07:14;;;;;;;10.80;6.03;;;;;;;18.95;63.67;98009.72;5053786;28;20206;-63
2023/04/30 08:09:40;;;;;;;5.38;4.88;;;;;;;18.63;64.04;97948.66;5053813;28;20176;-62
2023/04/30 08:12:07;;;;;;;6.78;4.70;;;;;;;18.74;62.03;97951.78;5053490;28;20639;-63
2023/04/30 08:14:32;;;;;;;5.88;4.13;;;;;;;19.00;60.57;98004.00;5053674;28;20717;-63
2023/04/30 08:16:59;;;;;;;5.18;3.72;;;;;;;18.74;59.62;97940.47;5053648;28;20169;-62
2023/04/30 08:19:25;;;;;;;8.43;5.00;;;;;;;19.13;60.98;97993.81;5053465;28;20205;-62
2023/04/30 08:21:50;;;;;;;6.05;4.90;;;;;;;18.90;61.01;97953.53;5053895;28;20180;-63
2023/04/30 08:24:16;;;;;;;6.68;4.45;;;;;;;18.67;60.42;97906.25;5053472;28;20248;-63
2023/04/30 08:26:41;;;;;;;7.88;4.07;;;;;;;18.99;60.58;97947.28;5053502;28;20170;-63
2023/04/30 08:29:10;;;;;;;4.63;3.58;;;;;;;19.07;59.28;97947.25;5053346;28;20204;-63
2023/04/30 08:31:36;;;;;;;7.90;3.75;;;;;;;19.23;58.45;97968.22;5053380;28;20174;-63
2023/04/30 08:34:01;;;;;;;4.45;4.03;;;;;;;18.95;58.32;97912.72;5053327;28;20185;-63
2023/04/30 08:36:26;;;;;;;6.03;4.15;;;;;;;19.25;57.76;97953.13;5053000;28;20560;-63
2023/04/30 08:38:52;;;;;;;5.22;4.05;;;;;;;19.32;56.85;97951.47;5053190;28;20216;-63
2023/04/30 08:41:21;;;;;;;5.25;4.32;;;;;;;19.53;57.05;97991.06;5053444;28;20177;-63
2023/04/30 08:43:51;;;;;;;5.40;4.13;;;;;;;19.23;57.22;97942.00;5052833;28;20658;-63
2023/04/30 08:46:17;;;;;;;9.77;5.00;;;;;;;19.51;57.72;97974.66;5053084;28;20169;-63
2023/04/30 08:48:43;;;;;;;4.45;3.72;;;;;;;19.37;55.45;97928.16;5030606;28;20304;-63
2023/04/30 08:51:09;;;;;;;5.32;4.00;;;;;;;19.48;54.84;97930.41;5030678;28;20186;-63
2023/04/30 08:53:39;;;;;;;9.80;4.32;;;;;;;19.66;54.81;97954.56;5030600;28;20619;-63
2023/04/30 08:56:04;;;;;;;5.35;4.00;;;;;;;19.85;53.34;97969.88;5030551;28;20269;-63
2023/04/30 08:58:30;;;;;;;4.25;3.70;;;;;;;19.77;53.70;97941.84;5030260;28;20304;-63
2023/04/30 09:00:58;;;;;;;6.05;3.75;;;;;;;19.89;53.96;97956.25;5030493;28;20182;-63
2023/04/30 09:03:24;;;;;;;3.20;2.90;;;;;;;19.98;52.00;97975.38;5030414;28;20204;-63
2023/04/30 09:05:49;;;;;;;4.25;3.00;;;;;;;19.98;48.35;97975.38;5030450;28;20182;-63
2023/04/30 09:08:19;;;;;;;5.40;3.35;;;;;;;19.73;48.91;97924.00;5030365;28;20551;-63
2023/04/30 09:10:44;;;;;;;4.13;2.60;;;;;;;20.03;47.25;97947.59;5030370;28;20178;-63
2023/04/30 09:13:11;;;;;;;2.90;2.13;;;;;;;19.87;47.31;97921.44;5030160;28;20664;-63
2023/04/30 09:15:40;;;;;;;2.95;2.42;;;;;;;20.05;47.43;97931.69;5030182;28;20178;-63
2023/04/30 09:18:09;;;;;;;2.60;2.15;;;;;;;20.34;46.41;97964.16;5030154;28;20663;-63
2023/04/30 09:20:35;;;;;;;3.53;2.42;;;;;;;20.47;44.76;97958.28;5049366;28;20224;-63
2023/04/30 09:23:09;;;;;;;3.03;2.30;;;;;;;20.18;44.26;97888.09;5052190;28;20201;-63
2023/04/30 09:25:41;;;;;;;2.65;2.00;;;;;;;20.59;42.09;97927.97;5051797;28;20183;-63
2023/04/30 09:28:11;;;;;;;3.00;2.00;;;;;;;20.72;41.24;97922.88;5052350;28;20204;-63
2023/04/30 09:30:38;;;;;;;6.38;2.20;;;;;;;20.99;42.18;97952.03;5052330;28;20180;-63
2023/04/30 09:33:03;;;;;;;5.82;2.70;;;;;;;21.10;42.01;97948.16;5052307;28;20215;-63
2023/04/30 09:35:31;;;;;;;4.82;2.30;;;;;;;20.83;41.79;97889.09;5052226;28;20205;-63
2023/04/30 09:37:59;;;;;;;4.15;2.38;;;;;;;21.22;41.15;97952.78;5052230;28;20179;-63
2023/04/30 09:40:39;;;;;;;2.30;2.20;;;;;;;20.82;41.00;97894.53;5052076;28;20255;-63
2023/04/30 09:43:05;;;;;;;3.20;1.85;;;;;;;20.67;40.36;97875.28;5052152;28;20205;-63
2023/04/30 09:45:50;;;;;;;3.17;2.20;;;;;;;20.91;39.64;97906.59;5052059;28;20176;-63
2023/04/30 09:48:17;;;;;;;3.17;2.00;;;;;;;21.22;40.01;97951.97;5051784;28;20566;-63
2023/04/30 09:50:43;;;;;;;3.95;2.33;;;;;;;20.84;39.98;97868.84;5051844;28;20538;-63
2023/04/30 09:53:13;;;;;;;6.15;2.70;;;;;;;20.95;39.53;97865.78;5051903;28;20276;-63
2023/04/30 09:55:42;;;;;;;2.38;2.15;;;;;;;21.12;39.37;97861.97;5051972;28;20176;-63
2023/04/30 09:58:09;;;;;;;3.10;2.47;;;;;;;21.69;38.95;97929.47;5051566;28;20570;-63
2023/04/30 10:00:36;;;;;;;3.05;2.15;;;;;;;21.50;39.27;97881.88;5049358;28;20208;-63
2023/04/30 10:03:09;;;;;;;2.40;2.20;;;;;;;21.70;36.79;97911.88;5049287;28;20199;-63
2023/04/30 10:05:46;;;;;;;4.60;2.00;;;;;;;21.99;35.93;97940.75;5049435;28;20189;-63
2023/04/30 10:08:27;;;;;;;4.50;1.95;;;;;;;21.76;36.26;97890.88;5049370;28;20197;-63
2023/04/30 10:11:01;;;;;;;3.10;2.90;;;;;;;22.00;35.35;97939.75;5049597;28;20259;-63
2023/04/30 10:13:37;;;;;;;2.70;1.65;;;;;;;21.51;35.45;97857.97;5049454;28;20189;-62
2023/04/30 10:16:34;;;;;;;3.08;2.10;;;;;;;22.04;35.51;97930.47;5049326;28;20208;-62
2023/04/30 10:19:06;;;;;;;2.58;2.38;;;;;;;21.92;36.10;97885.34;5025059;28;20218;-62
2023/04/30 10:21:31;;;;;;;2.35;2.15;;;;;;;22.22;35.02;97918.50;5029399;28;20244;-62
2023/04/30 10:23:57;;;;;;;5.07;2.22;;;;;;;21.94;34.99;97846.47;5029285;28;20186;-62
2023/04/30 10:26:23;;;;;;;1.90;1.80;;;;;;;22.37;34.38;97886.78;5029291;28;20192;-62
2023/04/30 10:28:49;;;;;;;4.38;2.42;;;;;;;22.50;34.70;97873.72;5029208;28;20570;-62
2023/04/30 10:31:16;;;;;;;7.07;3.20;;;;;;;22.25;33.87;97819.78;5029246;28;20734;-62
2023/04/30 10:34:03;;;;;;;3.35;2.47;;;;;;;22.90;33.94;97931.78;5036429;28;20220;-62
2023/04/30 10:36:53;;;;;;;4.05;2.35;;;;;;;22.91;34.92;97922.06;5051570;28;20192;-62
2023/04/30 10:39:23;;;;;;;2.92;2.20;;;;;;;22.44;35.50;97842.84;5053005;28;20619;-62
2023/04/30 10:41:48;;;;;;;2.60;2.28;;;;;;;22.93;34.99;97920.03;5052998;28;20188;-62
2023/04/30 10:44:15;;;;;;;3.80;2.20;;;;;;;22.44;35.42;97845.47;5053017;28;20628;-62
2023/04/30 10:46:41;;;;;;;2.75;2.28;;;;;;;22.53;34.84;97849.56;5052975;28;20176;-62
2023/04/30 10:49:07;;;;;;;2.08;1.70;;;;;;;22.86;34.56;97919.19;5053014;28;20177;-62
2023/04/30 10:51:45;;;;;;;2.50;2.30;;;;;;;22.84;34.59;97922.00;5055578;28;20192;-62
2023/04/30 10:54:11;;;;;;;2.63;2.17;;;;;;;22.96;34.72;97906.47;5055524;28;20239;-62
2023/04/30 10:56:36;;;;;;;2.63;2.15;;;;;;;23.13;34.86;97910.41;5055170;28;20603;-62
2023/04/30 10:59:01;;;;;;;5.07;2.47;;;;;;;23.14;34.63;97885.66;5054691;28;20200;-62
2023/04/30 11:01:28;;;;;;;2.55;2.30;;;;;;;23.09;34.76;97866.94;5055059;28;20165;-62
2023/04/30 11:04:10;;;;;;;2.20;1.90;;;;;;;23.55;34.83;97897.00;5055022;28;20227;-62
2023/04/30 11:06:51;;;;;;;2.70;2.30;;;;;;;23.90;34.30;97914.41;5055007;28;20208;-62
2023/04/30 11:09:17;;;;;;;4.35;2.10;;;;;;;23.80;33.58;97910.28;5054937;28;20181;-62
2023/04/30 11:11:49;;;;;;;4.72;2.53;;;;;;;23.56;33.74;97867.75;5054893;28;20169;-62
2023/04/30 11:14:19;;;;;;;4.40;2.30;;;;;;;23.67;33.88;97916.56;5054789;28;20187;-62
2023/04/30 11:16:48;;;;;;;2.65;2.30;;;;;;;23.00;34.61;97841.72;5054842;28;20181;-62
2023/04/30 11:19:14;;;;;;;4.00;2.78;;;;;;;23.14;35.03;97917.31;5054388;28;20569;-62
2023/04/30 11:22:03;;;;;;;7.15;2.70;;;;;;;23.20;35.76;97900.72;5054696;28;20209;-62
2023/04/30 11:24:51;;;;;;;4.65;2.75;;;;;;;23.46;35.16;97908.75;5052115;28;20199;-62
2023/04/30 11:27:31;;;;;;;2.78;2.58;;;;;;;23.47;34.66;97900.63;5052222;28;20171;-62
2023/04/30 11:29:57;;;;;;;3.05;2.05;;;;;;;23.11;34.08;97838.50;5052206;28;20180;-62
2023/04/30 11:32:25;;;;;;;4.78;2.30;;;;;;;23.44;34.18;97897.59;5052120;28;20277;-62
2023/04/30 11:34:51;;;;;;;6.25;2.60;;;;;;;23.56;34.01;97903.91;5051932;28;20575;-62
2023/04/30 11:37:42;;;;;;;7.07;2.47;;;;;;;23.16;34.21;97822.91;5052048;28;20185;-62